Time;durP1;ratioP1;P1;durP2;ratioP2;P2;SDS_P1;SDS_P2;PMS_P1;PMS_P2;Temp;Humidity;BMP_temperature;BMP_pressure;BME280_temperature;BME280_humidity;BME280_pressure;Samples;Min_cycle;Max_cycle;Signal;HPM_P1;HPM_P2
2023/02/07 00:00:33;;;;;;;0.57;0.57;;;;;;;-2.04;100.00;98998.63;5031229;28;20068;-79
2023/02/07 00:03:04;;;;;;;1.15;0.93;;;;;;;-2.32;100.00;98991.31;5031835;28;20508;-80
2023/02/07 00:05:30;;;;;;;0.60;0.60;;;;;;;-2.44;100.00;98983.31;5050884;28;20126;-80
2023/02/07 00:07:55;;;;;;;1.17;1.10;;;;;;;-2.43;100.00;99003.41;5032283;28;20504;-80
2023/02/07 00:10:21;;;;;;;1.42;1.33;;;;;;;-2.36;100.00;98998.25;5033178;28;20044;-80
2023/02/07 00:13:03;;;;;;;0.68;0.57;;;;;;;-2.48;100.00;98974.53;5027597;28;20024;-84
2023/02/07 00:15:29;;;;;;;;;;;;;;;-2.21;100.00;99006.28;5010262;28;20035;-78
2023/02/07 00:17:54;;;;;;;0.52;0.52;;;;;;;-2.29;100.00;98986.09;5019516;28;19987;-79
2023/02/07 00:20:24;;;;;;;1.42;1.33;;;;;;;-2.21;100.00;99001.03;5008075;28;20037;-80
2023/02/07 00:22:49;;;;;;;1.50;1.40;;;;;;;-2.10;100.00;99011.66;5007297;28;20409;-80
2023/02/07 00:28:24;;;;;;;1.83;1.73;;;;;;;-2.16;100.00;99000.22;4998507;28;20060;-79
2023/02/07 00:30:50;;;;;;;1.30;1.20;;;;;;;-2.07;100.00;99014.31;5003897;28;20509;-79
2023/02/07 00:33:16;;;;;;;5.53;1.83;;;;;;;-2.10;100.00;99019.53;4996064;28;20510;-80
2023/02/07 00:35:42;;;;;;;0.98;0.93;;;;;;;-2.01;100.00;99024.88;4995908;28;20030;-80
2023/02/07 00:38:08;;;;;;;1.55;1.45;;;;;;;-2.12;100.00;99017.75;4993125;28;20077;-79
2023/02/07 00:40:33;;;;;;;1.98;1.38;;;;;;;-2.27;100.00;99007.94;4991896;28;20460;-80
2023/02/07 00:42:59;;;;;;;1.02;1.02;;;;;;;-2.18;100.00;99017.69;4994861;28;20138;-80
2023/02/07 00:45:58;;;;;;;1.73;1.63;;;;;;;-2.10;100.00;99027.41;5026707;28;20033;-80
2023/02/07 00:48:24;;;;;;;0.82;0.82;;;;;;;-2.25;100.00;98991.41;5067691;28;20093;-78
2023/02/07 00:50:59;;;;;;;0.77;0.77;;;;;;;-2.36;100.00;98969.44;5039293;28;20590;-80
2023/02/07 00:53:26;;;;;;;0.85;0.85;;;;;;;-2.18;100.00;99005.44;5060427;28;20025;-80
2023/02/07 00:55:52;;;;;;;0.47;0.47;;;;;;;-2.34;100.00;98993.03;5036354;28;20027;-80
2023/02/07 00:58:17;;;;;;;2.15;1.95;;;;;;;-2.40;100.00;98993.81;5056156;28;20476;-79
2023/02/07 01:00:46;;;;;;;1.95;1.83;;;;;;;-2.35;100.00;98996.50;5057114;28;20039;-79
2023/02/07 01:03:12;;;;;;;0.90;0.90;;;;;;;-2.36;100.00;99005.22;5054481;28;20488;-80
2023/02/07 01:05:38;;;;;;;10.55;1.10;;;;;;;-2.51;100.00;99010.28;5049463;28;20052;-79
2023/02/07 01:08:03;;;;;;;1.55;1.38;;;;;;;-2.48;100.00;99021.66;5048465;28;20033;-80
2023/02/07 01:10:29;;;;;;;3.58;2.60;;;;;;;-2.46;100.00;99019.09;5045435;28;20052;-80
2023/02/07 01:12:55;;;;;;;6.97;1.92;;;;;;;-2.43;100.00;99026.97;5043467;28;20374;-80
2023/02/07 01:15:20;;;;;;;1.95;1.80;;;;;;;-2.40;100.00;99029.66;5049489;28;20458;-79
2023/02/07 01:17:46;;;;;;;1.40;0.90;;;;;;;-2.46;100.00;99029.56;5039746;28;20056;-80
2023/02/07 01:20:12;;;;;;;2.10;1.95;;;;;;;-2.36;100.00;99036.66;5032576;28;20120;-81
2023/02/07 01:22:39;;;;;;;6.93;3.42;;;;;;;-2.40;100.00;99037.50;5046141;28;20043;-79
2023/02/07 01:25:07;;;;;;;3.33;2.30;;;;;;;-2.45;100.00;99020.81;5069386;28;20071;-79
2023/02/07 01:27:33;;;;;;;1.63;1.55;;;;;;;-2.45;100.00;99016.47;5038973;28;20036;-80
2023/02/07 01:29:59;;;;;;;1.95;1.85;;;;;;;-2.39;100.00;99026.13;5032434;28;20110;-80
2023/02/07 01:32:24;;;;;;;1.30;1.30;;;;;;;-2.39;100.00;99023.53;5032614;28;20472;-80
2023/02/07 01:34:50;;;;;;;2.20;2.00;;;;;;;-2.57;100.00;99018.94;5040582;28;20032;-81
2023/02/07 01:37:16;;;;;;;1.73;1.63;;;;;;;-2.51;100.00;99025.97;5052141;28;20040;-80
2023/02/07 01:39:41;;;;;;;1.77;1.67;;;;;;;-2.62;100.00;99012.75;5046138;28;20086;-80
2023/02/07 01:42:12;;;;;;;1.60;1.08;;;;;;;-2.55;100.00;99024.19;5052729;28;20548;-80
2023/02/07 01:44:38;;;;;;;1.07;1.00;;;;;;;-2.51;100.00;99033.84;5036328;28;20059;-81
2023/02/07 01:47:04;;;;;;;1.42;1.33;;;;;;;-2.55;100.00;99032.06;5053789;28;20028;-80
2023/02/07 01:49:31;;;;;;;2.00;1.75;;;;;;;-2.46;100.00;99034.81;5035863;28;20025;-80
2023/02/07 01:52:02;;;;;;;0.50;0.50;;;;;;;-2.55;100.00;99024.19;5052577;28;20025;-78
2023/02/07 01:54:32;;;;;;;0.45;0.45;;;;;;;-2.51;100.00;99025.97;5035910;28;20037;-79
2023/02/07 01:57:00;;;;;;;2.08;1.95;;;;;;;-2.60;100.00;99020.63;5053203;28;20513;-79
2023/02/07 01:59:26;;;;;;;0.50;0.50;;;;;;;-2.67;100.00;99024.91;5068482;28;20028;-80
2023/02/07 02:01:53;;;;;;;2.15;1.73;;;;;;;-2.74;100.00;99020.47;5058558;28;20024;-79
2023/02/07 02:04:18;;;;;;;0.60;0.60;;;;;;;-2.80;100.00;99018.59;5055308;28;20076;-79
2023/02/07 02:06:44;;;;;;;1.85;1.73;;;;;;;-2.70;100.00;99031.81;5049926;28;20103;-79
2023/02/07 02:09:13;;;;;;;0.40;0.40;;;;;;;-2.80;100.00;99034.31;5054227;28;20020;-79
2023/02/07 02:11:41;;;;;;;0.85;0.85;;;;;;;-2.85;100.00;99030.75;5035816;28;20029;-79
2023/02/07 02:14:20;;;;;;;1.52;1.45;;;;;;;-2.78;100.00;99034.34;5052305;28;20028;-79
2023/02/07 02:17:02;;;;;;;2.53;1.75;;;;;;;-2.78;100.00;99043.09;5066403;28;20028;-80
2023/02/07 02:19:49;;;;;;;1.10;0.50;;;;;;;-2.74;100.00;99041.41;5055236;28;20032;-79
2023/02/07 02:22:33;;;;;;;0.50;0.50;;;;;;;-2.76;100.00;99041.34;5069132;28;20054;-79
2023/02/07 02:25:26;;;;;;;1.10;1.02;;;;;;;-2.74;100.00;99037.00;5059955;28;20024;-79
2023/02/07 02:28:39;;;;;;;2.42;1.98;;;;;;;-2.71;100.00;99035.31;5066910;28;20029;-80
2023/02/07 02:31:21;;;;;;;0.70;0.70;;;;;;;-2.75;100.00;99032.66;5008065;28;20390;-79
2023/02/07 02:34:01;;;;;;;5.18;1.55;;;;;;;-2.78;100.00;99042.19;5056267;28;20103;-78
2023/02/07 02:37:07;;;;;;;0.93;0.93;;;;;;;-2.79;100.00;99041.31;5071439;28;20024;-79
2023/02/07 02:39:38;;;;;;;4.15;2.10;;;;;;;-2.75;100.00;99039.63;5049637;28;20037;-80
2023/02/07 02:42:14;;;;;;;1.73;1.63;;;;;;;-2.68;100.00;99049.34;5072825;28;20404;-79
2023/02/07 02:44:46;;;;;;;0.73;0.73;;;;;;;-2.68;100.00;99044.09;5051745;28;20029;-79
2023/02/07 02:47:11;;;;;;;3.00;1.80;;;;;;;-2.67;100.00;99050.19;5041764;28;20040;-79
2023/02/07 02:49:37;;;;;;;1.13;1.13;;;;;;;-2.61;100.00;99045.03;5045559;28;20055;-80
2023/02/07 02:52:03;;;;;;;2.10;1.77;;;;;;;-2.54;100.00;99054.75;5039527;28;20039;-79
2023/02/07 02:54:32;;;;;;;2.40;1.27;;;;;;;-2.62;100.00;99040.69;5034461;28;20036;-79
2023/02/07 02:57:18;;;;;;;3.63;1.65;;;;;;;-2.54;100.00;99042.53;5051275;28;20075;-79
2023/02/07 03:00:17;;;;;;;0.88;0.88;;;;;;;-2.42;100.00;99053.19;5067131;28;20040;-79
2023/02/07 03:03:04;;;;;;;3.03;2.30;;;;;;;-2.34;100.00;99045.44;5056610;28;20029;-79
2023/02/07 03:05:48;;;;;;;0.60;0.60;;;;;;;-2.37;100.00;99050.63;5061654;28;20132;-79
2023/02/07 03:08:40;;;;;;;0.75;0.75;;;;;;;-2.40;100.00;99038.34;5052495;28;20071;-79
2023/02/07 03:11:12;;;;;;;1.33;1.25;;;;;;;-2.38;100.00;99044.50;5034537;28;20037;-78
2023/02/07 03:13:43;;;;;;;1.58;1.48;;;;;;;-2.30;100.00;99047.22;5070802;28;20108;-78
2023/02/07 03:16:14;;;;;;;6.50;2.08;;;;;;;-2.26;100.00;99043.78;5071055;28;20032;-80
2023/02/07 03:19:02;;;;;;;0.63;0.63;;;;;;;-2.32;100.00;99038.47;5053393;28;20487;-78
2023/02/07 03:21:36;;;;;;;1.75;1.33;;;;;;;-2.24;100.00;99042.03;5059444;28;20104;-80
2023/02/07 03:24:07;;;;;;;4.88;1.88;;;;;;;-2.22;100.00;99032.50;5042674;28;20033;-79
2023/02/07 03:26:33;;;;;;;6.45;2.47;;;;;;;-2.34;100.00;99030.56;5041842;28;20032;-80
2023/02/07 03:29:00;;;;;;;2.95;2.75;;;;;;;-2.26;100.00;99039.44;5059478;28;20024;-80
2023/02/07 03:31:26;;;;;;;0.80;0.80;;;;;;;-2.21;100.00;99042.09;5040931;28;20024;-76
2023/02/07 03:33:57;;;;;;;1.23;1.20;;;;;;;-2.26;100.00;99033.31;5042082;28;20033;-78
2023/02/07 03:36:42;;;;;;;1.17;1.10;;;;;;;-2.27;100.00;99023.66;5034015;28;20033;-77
2023/02/07 03:39:08;;;;;;;0.40;0.40;;;;;;;-2.25;100.00;99025.47;5033788;28;20032;-76
2023/02/07 03:41:41;;;;;;;2.88;1.63;;;;;;;-2.28;100.00;99025.41;5033637;28;20025;-76
2023/02/07 03:44:08;;;;;;;2.17;1.85;;;;;;;-2.21;100.00;99031.59;5034362;28;20116;-77
2023/02/07 03:46:35;;;;;;;1.58;1.48;;;;;;;-2.25;100.00;99032.44;5033496;28;20059;-76
2023/02/07 03:49:01;;;;;;;0.80;0.80;;;;;;;-2.27;100.00;99026.28;5050260;28;20111;-77
2023/02/07 03:51:26;;;;;;;5.80;2.75;;;;;;;-2.25;100.00;99025.47;5065952;28;20547;-76
2023/02/07 03:53:52;;;;;;;1.65;1.55;;;;;;;-2.30;100.00;99031.50;5052083;28;20392;-76
2023/02/07 03:56:18;;;;;;;1.90;1.77;;;;;;;-2.23;100.00;99033.34;5039841;28;20051;-76
2023/02/07 03:58:43;;;;;;;1.10;1.02;;;;;;;-2.26;100.00;99028.06;5060560;28;20028;-77
2023/02/07 04:01:09;;;;;;;1.17;1.15;;;;;;;-2.32;100.00;99033.22;5033288;28;20028;-78
2023/02/07 04:03:34;;;;;;;0.95;0.90;;;;;;;-2.29;100.00;99035.88;5050079;28;20017;-79
2023/02/07 04:06:00;;;;;;;4.38;3.90;;;;;;;-2.23;100.00;99034.22;5033062;28;20041;-77
2023/02/07 04:08:25;;;;;;;1.35;1.25;;;;;;;-2.27;100.00;99035.03;5033972;28;20433;-77
2023/02/07 04:11:02;;;;;;;1.13;1.13;;;;;;;-2.38;100.00;99027.91;5043284;28;20024;-77
2023/02/07 04:13:28;;;;;;;0.90;0.90;;;;;;;-2.41;100.00;99041.84;5069948;28;20089;-77
2023/02/07 04:15:54;;;;;;;0.98;0.90;;;;;;;-2.41;100.00;99023.53;5053424;28;20035;-77
2023/02/07 04:18:20;;;;;;;1.75;1.30;;;;;;;-2.42;100.00;99018.25;5056062;28;20030;-77
2023/02/07 04:20:46;;;;;;;1.00;1.00;;;;;;;-2.42;100.00;99023.47;5059346;28;20433;-76
2023/02/07 04:23:12;;;;;;;1.00;1.00;;;;;;;-2.47;100.00;99017.31;5045152;28;20024;-77
2023/02/07 04:25:37;;;;;;;1.23;1.23;;;;;;;-2.48;100.00;99020.78;5045206;28;20091;-77
2023/02/07 04:28:03;;;;;;;1.02;1.02;;;;;;;-2.54;100.00;99020.72;5049417;28;20067;-76
2023/02/07 04:30:30;;;;;;;0.60;0.60;;;;;;;-2.46;100.00;99026.94;5047008;28;20032;-77
2023/02/07 04:32:56;;;;;;;3.13;1.70;;;;;;;-2.43;100.00;99035.69;5069617;28;20036;-78
2023/02/07 04:35:22;;;;;;;3.33;1.85;;;;;;;-2.48;100.00;99037.38;5039204;28;20420;-78
2023/02/07 04:37:47;;;;;;;2.03;1.73;;;;;;;-2.54;100.00;99034.69;5057284;28;20095;-78
2023/02/07 04:40:13;;;;;;;0.73;0.73;;;;;;;-2.56;100.00;99040.75;5053007;28;20043;-77
2023/02/07 04:42:38;;;;;;;1.23;1.23;;;;;;;-2.56;100.00;99044.28;5044152;28;20444;-76
2023/02/07 04:45:04;;;;;;;0.98;0.98;;;;;;;-2.50;100.00;99049.59;5032880;28;20037;-77
2023/02/07 04:47:30;;;;;;;1.52;1.42;;;;;;;-2.51;100.00;99063.53;5033177;28;20524;-76
2023/02/07 04:49:55;;;;;;;0.90;0.90;;;;;;;-2.46;100.00;99059.22;5039720;28;20449;-77
2023/02/07 04:52:21;;;;;;;1.30;1.20;;;;;;;-2.60;100.00;99060.78;5054595;28;20032;-76
2023/02/07 04:54:47;;;;;;;0.85;0.85;;;;;;;-2.51;100.00;99057.41;5061319;28;20396;-78
2023/02/07 04:57:13;;;;;;;0.93;0.93;;;;;;;-2.55;100.00;99060.88;5039591;28;20033;-78
2023/02/07 04:59:38;;;;;;;0.55;0.55;;;;;;;-2.48;100.00;99067.94;5034133;28;20033;-78
2023/02/07 05:02:04;;;;;;;1.02;0.98;;;;;;;-2.42;100.00;99073.25;5047919;28;20071;-77
2023/02/07 05:04:29;;;;;;;0.73;0.73;;;;;;;-2.43;100.00;99077.59;5032773;28;20072;-77
2023/02/07 05:06:55;;;;;;;0.65;0.65;;;;;;;-2.52;100.00;99076.63;5032450;28;20056;-77
2023/02/07 05:09:20;;;;;;;2.70;1.83;;;;;;;-2.49;100.00;99087.16;5032827;28;20033;-77
2023/02/07 05:11:46;;;;;;;2.50;1.85;;;;;;;-2.60;100.00;99086.09;5040414;28;20111;-78
2023/02/07 05:14:11;;;;;;;0.90;0.90;;;;;;;-2.62;100.00;99085.19;5065724;28;20123;-77
2023/02/07 05:16:37;;;;;;;1.25;1.23;;;;;;;-2.59;100.00;99086.13;5057773;28;20040;-77
2023/02/07 05:19:03;;;;;;;16.40;7.03;;;;;;;-2.42;100.00;99089.84;5057236;28;20111;-77
2023/02/07 05:21:28;;;;;;;10.52;6.55;;;;;;;-2.46;100.00;99087.19;5070738;28;20475;-76
2023/02/07 05:23:54;;;;;;;1.80;1.70;;;;;;;-2.36;100.00;99103.03;5045418;28;20090;-77
2023/02/07 05:26:19;;;;;;;2.90;2.15;;;;;;;-2.43;100.00;99090.69;5060688;28;20024;-78
2023/02/07 05:28:45;;;;;;;3.67;3.35;;;;;;;-2.46;100.00;99101.13;5047334;28;20041;-75
2023/02/07 05:31:10;;;;;;;3.47;2.70;;;;;;;-2.50;100.00;99088.88;5055453;28;20029;-77
2023/02/07 05:33:36;;;;;;;3.42;3.15;;;;;;;-2.37;100.00;99108.28;5045451;28;20024;-77
2023/02/07 05:36:01;;;;;;;1.60;1.50;;;;;;;-2.41;100.00;99095.97;5063588;28;20032;-77
2023/02/07 05:38:27;;;;;;;1.85;1.75;;;;;;;-2.38;100.00;99103.88;5057651;28;20028;-76
2023/02/07 05:41:11;;;;;;;2.85;2.65;;;;;;;-2.36;100.00;99113.50;5055361;28;20029;-77
2023/02/07 05:43:37;;;;;;;1.20;1.20;;;;;;;-2.43;100.00;99111.66;5037772;28;20052;-77
2023/02/07 05:46:03;;;;;;;4.38;2.42;;;;;;;-2.42;100.00;99115.16;5040184;28;20479;-76
2023/02/07 05:48:28;;;;;;;2.10;1.95;;;;;;;-2.53;100.00;99111.53;5053719;28;20380;-77
2023/02/07 05:50:56;;;;;;;1.45;1.35;;;;;;;-2.46;100.00;99124.72;5071930;28;20074;-76
2023/02/07 05:53:22;;;;;;;2.40;2.17;;;;;;;-2.53;100.00;99127.25;5055534;28;20089;-77
2023/02/07 05:55:50;;;;;;;2.53;2.08;;;;;;;-2.56;100.00;99132.44;5055355;28;20032;-77
2023/02/07 05:58:16;;;;;;;2.28;2.00;;;;;;;-2.53;100.00;99135.97;5055148;28;20455;-78
2023/02/07 06:00:41;;;;;;;23.13;3.75;;;;;;;-2.72;100.00;99109.47;5062415;28;20051;-76
2023/02/07 06:03:07;;;;;;;1.55;1.48;;;;;;;-2.53;100.00;99132.47;5063280;28;20029;-76
2023/02/07 06:05:34;;;;;;;1.13;1.05;;;;;;;-2.48;100.00;99141.25;5064759;28;20048;-77
2023/02/07 06:07:59;;;;;;;1.15;1.15;;;;;;;-2.36;100.00;99131.84;5056268;28;20104;-77
2023/02/07 06:10:25;;;;;;;0.73;0.73;;;;;;;-2.32;100.00;99119.69;5064736;28;21702;-76
2023/02/07 06:12:50;;;;;;;1.80;1.30;;;;;;;-2.25;100.00;99126.78;5055231;28;20074;-76
2023/02/07 06:15:16;;;;;;;1.15;1.15;;;;;;;-2.20;100.00;99125.97;5055073;28;20036;-77
2023/02/07 06:17:41;;;;;;;1.75;1.27;;;;;;;-2.13;100.00;99121.69;5038620;28;20021;-77
2023/02/07 06:20:07;;;;;;;2.35;2.08;;;;;;;-2.05;100.00;99127.91;5054904;28;20043;-76
2023/02/07 06:22:33;;;;;;;5.30;3.05;;;;;;;-2.01;100.00;99129.72;5051459;28;20025;-77
2023/02/07 06:24:58;;;;;;;1.20;1.17;;;;;;;-2.01;100.00;99118.34;5061406;28;20029;-77
2023/02/07 06:27:24;;;;;;;1.67;1.58;;;;;;;-1.97;100.00;99123.63;5058427;28;20039;-76
2023/02/07 06:29:49;;;;;;;2.50;2.28;;;;;;;-2.04;100.00;99103.47;5064252;28;20073;-78
2023/02/07 06:32:15;;;;;;;2.42;2.22;;;;;;;-2.01;100.00;99114.00;5046034;28;20064;-78
2023/02/07 06:34:40;;;;;;;3.03;1.65;;;;;;;-1.97;100.00;99120.16;5054056;28;20033;-77
2023/02/07 06:37:06;;;;;;;1.77;1.67;;;;;;;-1.94;100.00;99110.59;5048577;28;20032;-76
2023/02/07 06:39:32;;;;;;;1.20;1.20;;;;;;;-1.86;100.00;99115.91;5033943;28;20037;-77
2023/02/07 06:41:57;;;;;;;8.25;2.88;;;;;;;-1.84;100.00;99128.19;5034267;28;20039;-77
2023/02/07 06:44:23;;;;;;;7.63;3.55;;;;;;;-1.86;100.00;99123.78;5035665;28;20033;-77
2023/02/07 06:46:48;;;;;;;1.67;1.60;;;;;;;-1.85;100.00;99131.69;5055656;28;20024;-76
2023/02/07 06:49:14;;;;;;;0.93;0.93;;;;;;;-1.78;100.00;99138.75;5062509;28;20497;-78
2023/02/07 06:51:39;;;;;;;7.35;2.20;;;;;;;-1.67;100.00;99131.03;5060075;28;20028;-77
2023/02/07 06:54:08;;;;;;;3.03;1.83;;;;;;;-1.48;100.00;99119.88;5070801;28;20029;-77
2023/02/07 06:56:34;;;;;;;1.63;1.52;;;;;;;-1.35;100.00;99123.47;5052150;28;20483;-77
2023/02/07 06:59:00;;;;;;;1.58;1.52;;;;;;;-1.26;100.00;99123.59;5062221;28;20039;-77
2023/02/07 07:01:25;;;;;;;1.63;1.52;;;;;;;-1.10;100.00;99125.50;5045663;28;20143;-76
2023/02/07 07:03:51;;;;;;;2.10;2.00;;;;;;;-0.81;100.00;99128.38;5053894;28;20028;-77
2023/02/07 07:06:16;;;;;;;1.88;1.77;;;;;;;-0.70;100.00;99119.72;5070733;28;20055;-76
2023/02/07 07:08:42;;;;;;;1.83;1.70;;;;;;;-0.63;100.00;99113.66;5047701;28;20025;-76
2023/02/07 07:11:07;;;;;;;1.65;1.55;;;;;;;-0.70;100.00;99105.69;5056101;28;20039;-77
2023/02/07 07:13:33;;;;;;;5.53;3.15;;;;;;;-0.55;100.00;99096.19;5048394;28;20109;-79
2023/02/07 07:15:58;;;;;;;3.53;2.38;;;;;;;-0.50;100.00;99101.47;5040126;28;20024;-76
2023/02/07 07:18:27;;;;;;;16.25;2.35;;;;;;;-0.50;100.00;99100.59;5051086;28;20033;-77
2023/02/07 07:20:53;;;;;;;1.67;1.58;;;;;;;-0.31;100.00;99084.97;5051149;28;20031;-77
2023/02/07 07:23:19;;;;;;;1.77;1.30;;;;;;;-0.22;100.00;99099.91;5053833;28;20491;-76
2023/02/07 07:25:45;;;;;;;6.50;2.67;;;;;;;0.01;100.00;99098.25;5053478;28;20077;-77
2023/02/07 07:28:10;;;;;;;2.15;1.85;;;;;;;0.16;100.00;99081.66;5070645;28;20395;-77
2023/02/07 07:30:36;;;;;;;1.25;1.25;;;;;;;0.31;100.00;99090.47;5051810;28;20021;-76
2023/02/07 07:33:01;;;;;;;1.20;1.20;;;;;;;0.36;100.00;99086.13;5069299;28;20032;-76
2023/02/07 07:35:27;;;;;;;3.60;2.10;;;;;;;0.55;100.00;99076.53;5070021;28;20067;-76
2023/02/07 07:37:53;;;;;;;0.95;0.95;;;;;;;0.69;100.00;99074.78;5052610;28;20025;-77
2023/02/07 07:40:19;;;;;;;1.60;0.85;;;;;;;0.71;100.00;99066.91;5070031;28;20031;-76
2023/02/07 07:42:44;;;;;;;6.28;2.63;;;;;;;0.59;100.00;99062.47;5053317;28;20101;-76
2023/02/07 07:45:12;;;;;;;2.30;1.95;;;;;;;0.74;100.00;99077.44;5050153;28;20105;-77
2023/02/07 07:47:38;;;;;;;5.72;1.75;;;;;;;0.79;100.00;99054.63;5035275;28;20028;-76
2023/02/07 07:50:04;;;;;;;1.77;1.67;;;;;;;0.88;100.00;99054.63;5053226;28;20029;-77
2023/02/07 07:52:29;;;;;;;1.55;1.45;;;;;;;1.00;100.00;99055.50;5047242;28;20549;-77
2023/02/07 07:54:55;;;;;;;1.40;1.30;;;;;;;0.87;100.00;99052.84;5049868;28;20028;-77
2023/02/07 07:57:21;;;;;;;2.00;1.90;;;;;;;0.59;100.00;99036.16;5065351;28;20024;-76
2023/02/07 07:59:46;;;;;;;1.73;1.55;;;;;;;1.42;100.00;99059.84;5044948;28;20172;-76
2023/02/07 08:02:12;;;;;;;3.53;1.83;;;;;;;3.13;94.72;99051.09;5044382;28;20123;-77
2023/02/07 08:04:38;;;;;;;3.45;1.83;;;;;;;4.49;80.34;99027.50;5069364;28;20055;-76
2023/02/07 08:07:03;;;;;;;3.42;2.53;;;;;;;5.36;71.98;99021.69;5052663;28;20036;-77
2023/02/07 08:09:29;;;;;;;5.72;1.95;;;;;;;6.76;62.97;99003.78;5069724;28;20031;-76
2023/02/07 08:11:54;;;;;;;4.03;1.38;;;;;;;7.47;59.00;98989.59;5046662;28;20097;-76
2023/02/07 08:14:20;;;;;;;1.98;1.85;;;;;;;7.51;56.95;98974.38;5035863;28;20032;-78
2023/02/07 08:16:45;;;;;;;2.25;1.80;;;;;;;7.91;55.05;98966.16;5041031;28;20036;-77
2023/02/07 08:19:11;;;;;;;1.67;1.58;;;;;;;8.23;54.27;98959.91;5051828;28;20033;-76
2023/02/07 08:21:36;;;;;;;1.75;1.55;;;;;;;8.11;52.58;98930.03;5055093;28;20025;-76
2023/02/07 08:24:02;;;;;;;5.15;2.10;;;;;;;6.69;54.69;98899.38;5046628;28;20484;-77
2023/02/07 08:26:27;;;;;;;1.02;1.00;;;;;;;6.60;57.19;98933.28;5045460;28;20036;-76
2023/02/07 08:28:53;;;;;;;3.00;1.52;;;;;;;7.38;54.83;98930.38;5041792;28;20025;-77
2023/02/07 08:31:18;;;;;;;9.27;3.45;;;;;;;7.25;54.71;98910.34;5032839;28;20021;-77
2023/02/07 08:33:44;;;;;;;2.33;1.30;;;;;;;7.54;54.26;98915.72;5049302;28;20040;-77
2023/02/07 08:36:10;;;;;;;1.92;1.83;;;;;;;7.94;55.46;98942.09;5032275;28;20029;-76
2023/02/07 08:38:37;;;;;;;4.88;3.17;;;;;;;8.72;51.72;98925.50;5037862;28;20055;-76
2023/02/07 08:41:03;;;;;;;3.15;1.55;;;;;;;9.31;48.52;98909.25;5040601;28;20029;-77
2023/02/07 08:43:29;;;;;;;2.20;1.70;;;;;;;10.02;47.01;98894.16;5032606;28;20033;-76
2023/02/07 08:45:54;;;;;;;2.92;0.85;;;;;;;9.84;46.52;98867.25;5049492;28;20025;-76
2023/02/07 08:48:20;;;;;;;1.77;1.23;;;;;;;10.01;46.37;98871.00;5032323;28;20033;-76
2023/02/07 08:50:45;;;;;;;3.03;2.63;;;;;;;10.25;46.76;98870.09;5040844;28;20495;-77
2023/02/07 08:53:11;;;;;;;8.25;3.72;;;;;;;10.20;45.96;98871.19;5056500;28;20037;-76
2023/02/07 08:55:39;;;;;;;2.83;1.63;;;;;;;10.88;45.97;98877.31;5051854;28;20123;-76
2023/02/07 08:58:05;;;;;;;3.22;2.83;;;;;;;10.42;46.97;98874.78;5053125;28;20040;-76
2023/02/07 09:00:30;;;;;;;3.38;1.80;;;;;;;8.74;48.98;98840.09;5036461;28;20094;-77
2023/02/07 09:02:56;;;;;;;1.25;1.15;;;;;;;7.36;51.05;98894.94;5036622;28;20116;-77
2023/02/07 09:05:21;;;;;;;5.88;1.98;;;;;;;8.53;51.03;98924.31;5071856;28;20060;-76
2023/02/07 09:07:47;;;;;;;3.40;3.03;;;;;;;9.54;49.15;98933.34;5042279;28;20033;-76
2023/02/07 09:10:13;;;;;;;11.13;6.13;;;;;;;10.01;47.71;98928.94;5054036;28;20427;-79
2023/02/07 09:12:39;;;;;;;19.33;10.18;;;;;;;10.03;46.58;98911.91;5073606;28;20025;-76
2023/02/07 09:15:05;;;;;;;14.38;8.23;;;;;;;8.72;47.41;98872.13;5039871;28;20036;-77
2023/02/07 09:17:30;;;;;;;15.35;8.10;;;;;;;5.72;50.22;98803.34;5044531;28;20032;-77
2023/02/07 09:19:56;;;;;;;17.17;8.27;;;;;;;4.87;54.28;98838.72;5059729;28;20033;-77
2023/02/07 09:22:21;;;;;;;14.90;6.43;;;;;;;5.60;52.21;98869.97;5055810;28;20043;-76
2023/02/07 09:24:47;;;;;;;13.88;6.78;;;;;;;5.86;51.66;98869.44;5073356;28;20095;-77
2023/02/07 09:27:12;;;;;;;13.80;6.65;;;;;;;5.74;52.82;98872.34;5055692;28;20033;-76
2023/02/07 09:29:38;;;;;;;13.48;7.13;;;;;;;5.97;52.70;98872.72;5060378;28;20028;-76
2023/02/07 09:32:03;;;;;;;14.88;7.68;;;;;;;6.05;53.29;98872.56;5036164;28;20067;-77
2023/02/07 09:34:32;;;;;;;17.52;7.53;;;;;;;6.74;51.46;98881.50;5052264;28;20416;-76
2023/02/07 09:36:57;;;;;;;59.90;21.50;;;;;;;6.24;51.00;98852.66;5035995;28;20029;-76
2023/02/07 09:39:23;;;;;;;37.60;16.08;;;;;;;6.87;51.78;98874.09;5053754;28;20054;-76
2023/02/07 09:42:07;;;;;;;15.65;7.68;;;;;;;8.81;48.21;98910.97;5072452;28;20136;-77
2023/02/07 09:44:46;;;;;;;15.63;7.50;;;;;;;9.25;46.08;98886.31;5070601;28;20033;-77
2023/02/07 09:47:16;;;;;;;30.85;12.80;;;;;;;10.42;45.39;98919.38;5068813;28;20036;-78
2023/02/07 09:49:51;;;;;;;21.58;10.63;;;;;;;11.17;43.94;98905.50;5055586;28;20499;-76
2023/02/07 09:52:23;;;;;;;19.85;8.38;;;;;;;9.95;44.50;98844.50;5038420;28;20032;-75
2023/02/07 09:54:49;;;;;;;;;;;;;;;10.02;44.56;98861.19;5036107;28;20108;-77
2023/02/07 09:57:21;;;;;;;16.30;9.30;;;;;;;10.92;43.76;98863.81;5048838;28;19920;-77
2023/02/07 09:59:54;;;;;;;18.63;10.40;;;;;;;11.44;42.70;98876.69;5047368;28;20056;-76
2023/02/07 10:02:37;;;;;;;24.75;10.77;;;;;;;12.49;40.14;98865.50;5054384;28;20538;-77
2023/02/07 10:05:06;;;;;;;17.85;10.30;;;;;;;12.18;39.67;98833.03;5051849;28;20049;-77
2023/02/07 10:07:32;;;;;;;20.55;10.40;;;;;;;10.07;42.58;98782.53;5054059;28;20021;-76
2023/02/07 10:09:57;;;;;;;21.15;11.13;;;;;;;11.41;41.38;98825.91;5041292;28;20048;-75
2023/02/07 10:12:42;;;;;;;18.45;9.75;;;;;;;10.89;42.15;98803.19;5035144;28;20420;-76
2023/02/07 10:15:23;;;;;;;28.05;11.07;;;;;;;7.77;43.08;98680.69;5051866;28;20100;-77
2023/02/07 10:18:25;;;;;;;17.75;9.88;;;;;;;7.08;46.28;98727.19;5064439;28;20028;-76
2023/02/07 10:20:59;;;;;;;30.85;13.20;;;;;;;6.72;48.74;98738.88;5051993;28;20029;-76
2023/02/07 10:23:36;;;;;;;16.77;9.50;;;;;;;6.11;49.34;98751.13;5061683;28;20039;-78
2023/02/07 10:26:31;;;;;;;15.70;8.48;;;;;;;5.41;50.05;98730.66;5057538;28;20037;-76
2023/02/07 10:29:00;;;;;;;16.15;7.75;;;;;;;4.72;51.65;98735.66;5048283;28;20020;-76
2023/02/07 10:31:26;;;;;;;21.48;9.15;;;;;;;5.40;50.68;98769.56;5054382;28;20058;-76
2023/02/07 10:33:57;;;;;;;18.90;7.57;;;;;;;7.48;46.28;98817.38;5035116;28;20454;-76
2023/02/07 10:36:23;;;;;;;13.20;7.20;;;;;;;8.85;44.03;98819.25;5034980;28;20123;-77
2023/02/07 10:38:58;;;;;;;13.38;7.38;;;;;;;10.06;41.96;98828.91;5043131;28;20408;-77
2023/02/07 10:41:38;;;;;;;14.23;7.90;;;;;;;11.66;39.12;98829.19;5034312;28;20488;-77
2023/02/07 10:44:05;;;;;;;16.30;8.30;;;;;;;12.43;39.14;98822.84;5051315;28;20028;-75
2023/02/07 10:46:32;;;;;;;16.33;8.38;;;;;;;11.87;39.51;98805.94;5034431;28;20032;-76
2023/02/07 10:48:58;;;;;;;17.95;9.35;;;;;;;12.38;38.14;98795.38;5059709;28;20021;-77
2023/02/07 10:51:36;;;;;;;18.48;8.77;;;;;;;10.73;39.13;98743.25;5034693;28;20112;-75
2023/02/07 10:54:01;;;;;;;14.55;7.88;;;;;;;9.16;42.01;98698.00;5034756;28;20135;-77
2023/02/07 10:56:28;;;;;;;13.23;6.90;;;;;;;9.09;41.71;98717.81;5051056;28;20199;-76
2023/02/07 10:58:58;;;;;;;12.55;7.03;;;;;;;7.54;42.50;98649.47;5042874;28;20024;-77
2023/02/07 11:01:28;;;;;;;18.35;9.18;;;;;;;7.96;43.81;98697.84;5041984;28;20044;-75
2023/02/07 11:03:57;;;;;;;15.25;8.20;;;;;;;8.65;42.37;98705.22;5054352;28;20070;-76
2023/02/07 11:06:33;;;;;;;15.18;7.82;;;;;;;7.40;44.53;98659.72;5046215;28;20044;-74
2023/02/07 11:09:21;;;;;;;14.15;7.72;;;;;;;6.76;46.74;98672.31;5041662;28;20028;-77
2023/02/07 11:11:52;;;;;;;15.80;8.30;;;;;;;6.78;46.33;98681.09;5033780;28;20127;-76
2023/02/07 11:14:25;;;;;;;18.42;9.20;;;;;;;7.66;44.47;98704.16;5064764;28;20040;-75
2023/02/07 11:16:59;;;;;;;16.98;9.27;;;;;;;8.98;42.15;98727.16;5070413;28;20119;-75
2023/02/07 11:19:27;;;;;;;19.33;8.95;;;;;;;9.85;40.04;98746.91;5063278;28;20032;-76
2023/02/07 11:22:17;;;;;;;23.73;12.23;;;;;;;11.55;37.96;98771.69;5069736;28;20506;-75
2023/02/07 11:24:42;;;;;;;17.40;9.48;;;;;;;11.93;38.93;98763.59;5034373;28;20041;-76
2023/02/07 11:27:16;;;;;;;15.48;7.50;;;;;;;12.98;35.80;98769.91;5063587;28;20082;-76
2023/02/07 11:29:49;;;;;;;12.82;7.22;;;;;;;12.94;35.91;98743.31;5052588;28;20082;-76
2023/02/07 11:32:15;;;;;;;25.77;8.10;;;;;;;13.29;36.19;98750.41;5040727;28;20071;-76
2023/02/07 11:34:58;;;;;;;24.77;9.90;;;;;;;13.32;36.63;98746.69;5058637;28;20017;-77
2023/02/07 11:37:23;;;;;;;;;;;;;;;11.63;36.79;98662.34;5052313;28;20033;-76
2023/02/07 11:39:50;;;;;;;14.93;8.18;;;;;;;10.25;38.46;98628.53;5051986;28;19920;-76